Terminal Aerodrome Forecast
Issued by NWS

Home | Current Version | Previous Version | Text Only | Print | Product List | Glossary On
Versions: 1 2 3 4 5 6 7 8 9 10 11 12 13 14
000
FTUS45 KABQ 261141
TAFFMN
TAF
KFMN 261141Z 2612/2712 31008KT P6SM VCFG SCT025 BKN040
      TEMPO 2612/2614 3SM BR BKN025
     FM261600 27010G17KT P6SM SCT035
     FM261800 29018G28KT P6SM FEW050
     FM270130 VRB05KT P6SM SCT200=

USA.gov is the U.S. government's official web portal to all federal, state and local government web resources and services.